• Join FlightAware (Why Join?)
  • Login
  • US Flag 
02:31PM EDT


 

Airport Tracker/Info


-or-


 

Live Flight TrackerFlight Track Log ✈ DAL6234 ✈ 22-Apr-2013 ✈ KLGA - KSYR

Flight Track Log - Related Links

Times and Time Zones

All times are in EDT time to prevent confusion due to time zone crossing. See the DAL6234 flight status page for this flight to view local times or setup timezone preferences in your user account.

Time Position Orientation Groundspeed Altitude Reporting Facility
EDT Latitude Longitude Course Direction KTS MPH feet Rate Location/Type
05:27PM 40.7500 -73.8000 313° West 187 215 3,800  Level New York TRACON
05:28PM 40.8000 -73.7667 27° Northeast 222 255 5,000 1,740 Climbing New York TRACON
05:29PM 40.8667 -73.7833 349° North 268 308 7,300 2,940 Climbing New York TRACON
05:30PM 40.9000 -73.8667 298° West 278 320 10,900 2,400 Climbing New York TRACON
05:31PM 40.9667 -73.9667 311° West 331 381 12,100 1,320 Climbing New York TRACON
05:32PM 41.0333 -74.0667 311° West 381 438 13,600 1,260 Climbing New York TRACON
05:33PM 41.0776 -74.3465 313° West  Level FlightAware Approximate
05:34PM 41.1269 -74.3244 296° West 401 461 15,900  Level New York Center
05:35PM 41.1792 -74.4511 299° West 396 456 16,000  Climbing New York Center
05:36PM 41.2256 -74.5669 298° West 396 456 16,000 780 Level New York Center
05:37PM 41.2983 -74.6953 307° West 401 461 17,600 1,380 Climbing New York Center
05:38PM 41.3636 -74.7986 310° West 401 461 18,900 1,440 Climbing New York Center
05:39PM 41.4367 -74.9164 310° West 406 467 20,500 1,380 Climbing New York Center
05:40PM 41.5136 -75.0375 310° West 413 475 21,700 720 Climbing New York Center
05:41PM 41.5903 -75.1617 310° West 424 488 22,000 120 Climbing New York Center
05:42PM 41.6647 -75.2858 309° West 424 488 22,000  Level New York Center
05:43PM 41.7389 -75.4106 309° West 434 499 22,000  Level New York Center
05:44PM 41.8131 -75.5408 307° West 434 499 22,000  Level New York Center
05:45PM 41.8869 -75.6686 308° West 434 499 22,000 -540 Level New York Center
05:46PM 41.9608 -75.7942 308° West 434 499 21,000 -1,020 Descending New York Center
05:47PM 42.0344 -75.9225 308° West 434 499 20,000 -960 Descending New York Center
05:48PM 42.1039 -76.0453 307° West 434 499 19,100 -1,200 Descending New York Center
05:49PM 42.1936 -76.1336 324° Northwest 421 484 17,600 -1,740 Descending New York Center
05:50PM 42.3067 -76.1233 North 374 430 15,600 -2,220 Descending New York Center
05:51PM 42.3806 -76.1139 North 404 465 14,300 -2,220 Descending Boston Center
05:51PM 42.4767 -76.1028 North 383 441 12,500 -1,740 Descending Boston Center
05:52PM 42.5792 -76.0919 North 372 428 11,000 -1,200 Descending Boston Center
05:53PM 42.6775 -76.0836 North 339 390 10,100 -1,260 Descending Boston Center
05:54PM 42.7422 -76.1439 326° Northwest 273 314 8,500 -1,740 Descending Boston Center
05:55PM 42.7981 -76.2208 315° West 276 318 6,600 -1,680 Descending Boston Center
05:56PM 42.8519 -76.2950 315° West 277 319 5,200 -840 Descending Boston Center
05:57PM 42.9039 -76.3664 315° West 250 288 5,000 -60 Descending Boston Center
05:58PM 42.9714 -76.4019 339° North 236 272 5,100  Climbing Boston Center
05:59PM 43.0308 -76.4256 344° North 236 272 5,100 -180 Level Boston Center
06:01PM 43.0886 -76.3839 28° Northeast 225 259 4,800 -900 Descending Boston Center
06:01PM 43.1033 -76.3194 73° East 196 226 3,400 -1,440 Descending Boston Center
06:02PM 43.1039 -76.2425 89° East 199 229 2,100 -1,080 Descending Boston Center
06:03PM 43.1061 -76.1772 87° East 160 184 1,300 -840 Descending Boston Center
06:05PM 43.1000 -76.1000 124° Southeast  Level FlightAware Approximate
06:12PM 43.1112 -76.1063 124° Southeast  Level Estimated
06:13PM 43.1112 -76.1063 124° Southeast  Level Estimated
06:14PM 43.1112 -76.1063 124° Southeast  Level Estimated
06:15PM 43.1112 -76.1063 124° Southeast  Level Estimated
06:16PM 43.1112 -76.1063 124° Southeast  Level Estimated